sensor_id;sensor_type;location;lat;lon;timestamp;P1;durP1;ratioP1;P2;durP2;ratioP2
19776;SDS011;10047;42.490;26.012;2023-07-29T00:00:41;5.45;;;2.83;;
19776;SDS011;10047;42.490;26.012;2023-07-29T00:03:07;3.25;;;2.85;;
19776;SDS011;10047;42.490;26.012;2023-07-29T00:05:33;4.60;;;2.75;;
19776;SDS011;10047;42.490;26.012;2023-07-29T00:07:58;3.35;;;2.63;;
19776;SDS011;10047;42.490;26.012;2023-07-29T00:10:24;3.40;;;2.45;;
19776;SDS011;10047;42.490;26.012;2023-07-29T00:12:49;3.20;;;2.28;;
19776;SDS011;10047;42.490;26.012;2023-07-29T00:15:15;3.45;;;2.75;;
19776;SDS011;10047;42.490;26.012;2023-07-29T00:17:40;5.20;;;2.70;;
19776;SDS011;10047;42.490;26.012;2023-07-29T00:20:06;3.72;;;2.40;;
19776;SDS011;10047;42.490;26.012;2023-07-29T00:22:32;4.07;;;2.38;;
19776;SDS011;10047;42.490;26.012;2023-07-29T00:24:57;3.25;;;2.50;;
19776;SDS011;10047;42.490;26.012;2023-07-29T00:27:24;3.22;;;2.30;;
19776;SDS011;10047;42.490;26.012;2023-07-29T00:29:50;3.80;;;2.78;;
19776;SDS011;10047;42.490;26.012;2023-07-29T00:32:15;9.00;;;2.70;;
19776;SDS011;10047;42.490;26.012;2023-07-29T00:34:41;3.88;;;2.40;;
19776;SDS011;10047;42.490;26.012;2023-07-29T00:37:06;5.57;;;2.70;;
19776;SDS011;10047;42.490;26.012;2023-07-29T00:39:32;6.22;;;2.85;;
19776;SDS011;10047;42.490;26.012;2023-07-29T00:41:58;4.03;;;2.60;;
19776;SDS011;10047;42.490;26.012;2023-07-29T00:44:23;4.60;;;2.92;;
19776;SDS011;10047;42.490;26.012;2023-07-29T00:46:52;4.82;;;2.50;;
19776;SDS011;10047;42.490;26.012;2023-07-29T00:49:19;4.72;;;2.63;;
19776;SDS011;10047;42.490;26.012;2023-07-29T00:51:45;4.50;;;3.17;;
19776;SDS011;10047;42.490;26.012;2023-07-29T00:54:11;4.88;;;2.90;;
19776;SDS011;10047;42.490;26.012;2023-07-29T00:56:38;5.47;;;2.88;;
19776;SDS011;10047;42.490;26.012;2023-07-29T00:59:04;4.78;;;2.80;;
19776;SDS011;10047;42.490;26.012;2023-07-29T01:01:29;5.72;;;2.90;;
19776;SDS011;10047;42.490;26.012;2023-07-29T01:03:55;4.80;;;2.90;;
19776;SDS011;10047;42.490;26.012;2023-07-29T01:09:06;4.18;;;2.80;;
19776;SDS011;10047;42.490;26.012;2023-07-29T01:11:38;4.30;;;3.10;;
19776;SDS011;10047;42.490;26.012;2023-07-29T01:14:24;4.75;;;2.63;;
19776;SDS011;10047;42.490;26.012;2023-07-29T01:17:08;4.95;;;3.03;;
19776;SDS011;10047;42.490;26.012;2023-07-29T01:22:17;4.00;;;2.70;;
19776;SDS011;10047;42.490;26.012;2023-07-29T01:24:45;3.95;;;2.88;;
19776;SDS011;10047;42.490;26.012;2023-07-29T01:27:11;4.57;;;2.88;;
19776;SDS011;10047;42.490;26.012;2023-07-29T01:29:36;4.95;;;3.10;;
19776;SDS011;10047;42.490;26.012;2023-07-29T01:32:04;4.78;;;2.88;;
19776;SDS011;10047;42.490;26.012;2023-07-29T01:34:39;4.82;;;3.30;;
19776;SDS011;10047;42.490;26.012;2023-07-29T01:37:11;4.70;;;3.38;;
19776;SDS011;10047;42.490;26.012;2023-07-29T01:39:45;4.55;;;3.47;;
19776;SDS011;10047;42.490;26.012;2023-07-29T01:42:11;4.20;;;3.22;;
19776;SDS011;10047;42.490;26.012;2023-07-29T01:44:37;7.55;;;3.13;;
19776;SDS011;10047;42.490;26.012;2023-07-29T01:47:03;4.75;;;3.35;;
19776;SDS011;10047;42.490;26.012;2023-07-29T01:49:28;7.05;;;3.90;;
19776;SDS011;10047;42.490;26.012;2023-07-29T01:51:53;4.63;;;3.38;;
19776;SDS011;10047;42.490;26.012;2023-07-29T01:54:19;6.00;;;3.80;;
19776;SDS011;10047;42.490;26.012;2023-07-29T01:56:44;6.82;;;3.42;;
19776;SDS011;10047;42.490;26.012;2023-07-29T01:59:10;7.38;;;3.65;;
19776;SDS011;10047;42.490;26.012;2023-07-29T02:01:36;5.68;;;3.47;;
19776;SDS011;10047;42.490;26.012;2023-07-29T02:04:01;5.07;;;3.30;;
19776;SDS011;10047;42.490;26.012;2023-07-29T02:06:26;5.88;;;3.53;;
19776;SDS011;10047;42.490;26.012;2023-07-29T02:08:52;6.20;;;3.20;;
19776;SDS011;10047;42.490;26.012;2023-07-29T02:11:18;5.03;;;3.63;;
19776;SDS011;10047;42.490;26.012;2023-07-29T02:13:45;7.57;;;3.92;;
19776;SDS011;10047;42.490;26.012;2023-07-29T02:16:10;4.15;;;3.75;;
19776;SDS011;10047;42.490;26.012;2023-07-29T02:18:36;5.63;;;3.70;;
19776;SDS011;10047;42.490;26.012;2023-07-29T02:21:02;5.22;;;3.80;;
19776;SDS011;10047;42.490;26.012;2023-07-29T02:23:28;5.05;;;4.00;;
19776;SDS011;10047;42.490;26.012;2023-07-29T02:25:53;4.28;;;3.42;;
19776;SDS011;10047;42.490;26.012;2023-07-29T02:28:19;5.05;;;3.72;;
19776;SDS011;10047;42.490;26.012;2023-07-29T02:30:44;5.47;;;4.00;;
19776;SDS011;10047;42.490;26.012;2023-07-29T02:33:10;5.53;;;4.07;;
19776;SDS011;10047;42.490;26.012;2023-07-29T02:35:35;4.88;;;3.63;;
19776;SDS011;10047;42.490;26.012;2023-07-29T02:38:01;5.70;;;3.92;;
19776;SDS011;10047;42.490;26.012;2023-07-29T02:40:26;3.97;;;3.58;;
19776;SDS011;10047;42.490;26.012;2023-07-29T02:42:53;5.68;;;3.85;;
19776;SDS011;10047;42.490;26.012;2023-07-29T02:45:18;5.00;;;3.70;;
19776;SDS011;10047;42.490;26.012;2023-07-29T02:47:44;6.55;;;3.58;;
19776;SDS011;10047;42.490;26.012;2023-07-29T02:50:09;5.93;;;3.88;;
19776;SDS011;10047;42.490;26.012;2023-07-29T02:52:35;6.75;;;4.15;;
19776;SDS011;10047;42.490;26.012;2023-07-29T02:55:00;5.93;;;3.78;;
19776;SDS011;10047;42.490;26.012;2023-07-29T02:57:25;5.40;;;3.80;;
19776;SDS011;10047;42.490;26.012;2023-07-29T02:59:51;4.40;;;4.00;;
19776;SDS011;10047;42.490;26.012;2023-07-29T03:02:16;6.00;;;4.15;;
19776;SDS011;10047;42.490;26.012;2023-07-29T03:04:42;4.70;;;3.75;;
19776;SDS011;10047;42.490;26.012;2023-07-29T03:07:07;6.65;;;4.15;;
19776;SDS011;10047;42.490;26.012;2023-07-29T03:09:32;4.40;;;3.63;;
19776;SDS011;10047;42.490;26.012;2023-07-29T03:11:58;4.65;;;3.80;;
19776;SDS011;10047;42.490;26.012;2023-07-29T03:14:24;7.38;;;3.63;;
19776;SDS011;10047;42.490;26.012;2023-07-29T03:16:49;5.18;;;3.63;;
19776;SDS011;10047;42.490;26.012;2023-07-29T03:19:15;8.85;;;3.85;;
19776;SDS011;10047;42.490;26.012;2023-07-29T03:21:40;7.60;;;3.90;;
19776;SDS011;10047;42.490;26.012;2023-07-29T03:24:06;8.85;;;4.07;;
19776;SDS011;10047;42.490;26.012;2023-07-29T03:26:32;8.10;;;3.88;;
19776;SDS011;10047;42.490;26.012;2023-07-29T03:28:57;5.43;;;3.75;;
19776;SDS011;10047;42.490;26.012;2023-07-29T03:31:22;5.45;;;3.70;;
19776;SDS011;10047;42.490;26.012;2023-07-29T03:33:48;5.72;;;3.97;;
19776;SDS011;10047;42.490;26.012;2023-07-29T03:36:13;6.47;;;3.60;;
19776;SDS011;10047;42.490;26.012;2023-07-29T03:38:39;6.25;;;3.78;;
19776;SDS011;10047;42.490;26.012;2023-07-29T03:41:06;5.68;;;3.80;;
19776;SDS011;10047;42.490;26.012;2023-07-29T03:43:35;4.93;;;4.22;;
19776;SDS011;10047;42.490;26.012;2023-07-29T03:46:00;4.60;;;3.70;;
19776;SDS011;10047;42.490;26.012;2023-07-29T03:48:26;4.57;;;3.20;;
19776;SDS011;10047;42.490;26.012;2023-07-29T03:50:51;3.88;;;2.85;;
19776;SDS011;10047;42.490;26.012;2023-07-29T03:53:16;5.45;;;3.20;;
19776;SDS011;10047;42.490;26.012;2023-07-29T03:55:42;3.85;;;3.15;;
19776;SDS011;10047;42.490;26.012;2023-07-29T03:58:08;6.50;;;3.00;;
19776;SDS011;10047;42.490;26.012;2023-07-29T04:00:33;5.32;;;3.20;;
19776;SDS011;10047;42.490;26.012;2023-07-29T04:02:58;5.53;;;2.83;;
19776;SDS011;10047;42.490;26.012;2023-07-29T04:05:24;4.50;;;3.08;;
19776;SDS011;10047;42.490;26.012;2023-07-29T04:07:49;4.45;;;2.45;;
19776;SDS011;10047;42.490;26.012;2023-07-29T04:10:15;5.68;;;2.85;;
19776;SDS011;10047;42.490;26.012;2023-07-29T04:12:40;3.67;;;2.95;;
19776;SDS011;10047;42.490;26.012;2023-07-29T04:15:06;3.97;;;2.70;;
19776;SDS011;10047;42.490;26.012;2023-07-29T04:17:32;3.95;;;2.95;;
19776;SDS011;10047;42.490;26.012;2023-07-29T04:19:57;4.47;;;2.70;;
19776;SDS011;10047;42.490;26.012;2023-07-29T04:22:23;3.33;;;2.58;;
19776;SDS011;10047;42.490;26.012;2023-07-29T04:24:48;4.00;;;2.63;;
19776;SDS011;10047;42.490;26.012;2023-07-29T04:27:13;3.90;;;2.80;;
19776;SDS011;10047;42.490;26.012;2023-07-29T04:29:39;5.53;;;2.88;;
19776;SDS011;10047;42.490;26.012;2023-07-29T04:32:05;3.63;;;2.85;;
19776;SDS011;10047;42.490;26.012;2023-07-29T04:34:31;12.00;;;5.82;;
19776;SDS011;10047;42.490;26.012;2023-07-29T04:36:57;8.30;;;5.78;;
19776;SDS011;10047;42.490;26.012;2023-07-29T04:39:22;8.95;;;5.35;;
19776;SDS011;10047;42.490;26.012;2023-07-29T04:41:48;7.43;;;5.50;;
19776;SDS011;10047;42.490;26.012;2023-07-29T04:44:13;6.57;;;5.13;;
19776;SDS011;10047;42.490;26.012;2023-07-29T04:46:38;12.93;;;7.90;;
19776;SDS011;10047;42.490;26.012;2023-07-29T04:49:04;9.98;;;7.07;;
19776;SDS011;10047;42.490;26.012;2023-07-29T04:51:30;11.10;;;5.50;;
19776;SDS011;10047;42.490;26.012;2023-07-29T04:53:56;12.57;;;6.53;;
19776;SDS011;10047;42.490;26.012;2023-07-29T04:56:22;6.55;;;4.85;;
19776;SDS011;10047;42.490;26.012;2023-07-29T04:58:47;10.27;;;5.35;;
19776;SDS011;10047;42.490;26.012;2023-07-29T05:01:13;5.72;;;4.40;;
19776;SDS011;10047;42.490;26.012;2023-07-29T05:03:38;12.75;;;6.25;;
19776;SDS011;10047;42.490;26.012;2023-07-29T05:06:05;9.40;;;5.88;;
19776;SDS011;10047;42.490;26.012;2023-07-29T05:08:30;6.80;;;4.30;;
19776;SDS011;10047;42.490;26.012;2023-07-29T05:10:56;5.15;;;4.00;;
19776;SDS011;10047;42.490;26.012;2023-07-29T05:13:22;9.50;;;4.05;;
19776;SDS011;10047;42.490;26.012;2023-07-29T05:15:48;5.05;;;3.30;;
19776;SDS011;10047;42.490;26.012;2023-07-29T05:18:14;4.82;;;4.03;;
19776;SDS011;10047;42.490;26.012;2023-07-29T05:20:40;9.70;;;3.95;;
19776;SDS011;10047;42.490;26.012;2023-07-29T05:23:06;8.05;;;4.25;;
19776;SDS011;10047;42.490;26.012;2023-07-29T05:25:31;6.05;;;4.03;;
19776;SDS011;10047;42.490;26.012;2023-07-29T05:27:57;6.85;;;3.58;;
19776;SDS011;10047;42.490;26.012;2023-07-29T05:30:22;5.63;;;3.35;;
19776;SDS011;10047;42.490;26.012;2023-07-29T05:32:48;4.90;;;3.47;;
19776;SDS011;10047;42.490;26.012;2023-07-29T05:35:13;4.75;;;3.17;;
19776;SDS011;10047;42.490;26.012;2023-07-29T05:37:39;9.00;;;3.58;;
19776;SDS011;10047;42.490;26.012;2023-07-29T05:40:05;4.55;;;3.08;;
19776;SDS011;10047;42.490;26.012;2023-07-29T05:42:32;8.18;;;3.50;;
19776;SDS011;10047;42.490;26.012;2023-07-29T05:44:57;6.97;;;3.28;;
19776;SDS011;10047;42.490;26.012;2023-07-29T05:47:23;7.47;;;3.20;;
19776;SDS011;10047;42.490;26.012;2023-07-29T05:49:48;6.25;;;3.20;;
19776;SDS011;10047;42.490;26.012;2023-07-29T05:52:14;5.00;;;2.90;;
19776;SDS011;10047;42.490;26.012;2023-07-29T05:54:40;3.50;;;2.80;;
19776;SDS011;10047;42.490;26.012;2023-07-29T05:57:07;7.10;;;3.35;;
19776;SDS011;10047;42.490;26.012;2023-07-29T05:59:34;5.22;;;2.50;;
19776;SDS011;10047;42.490;26.012;2023-07-29T06:01:59;5.03;;;2.67;;
19776;SDS011;10047;42.490;26.012;2023-07-29T06:04:24;3.72;;;3.00;;
19776;SDS011;10047;42.490;26.012;2023-07-29T06:06:50;4.88;;;2.88;;
19776;SDS011;10047;42.490;26.012;2023-07-29T06:09:15;4.68;;;3.13;;
19776;SDS011;10047;42.490;26.012;2023-07-29T06:11:41;5.15;;;2.72;;
19776;SDS011;10047;42.490;26.012;2023-07-29T06:14:07;4.15;;;2.92;;
19776;SDS011;10047;42.490;26.012;2023-07-29T06:16:32;3.90;;;2.60;;
19776;SDS011;10047;42.490;26.012;2023-07-29T06:18:58;3.78;;;2.45;;
19776;SDS011;10047;42.490;26.012;2023-07-29T06:21:23;4.20;;;2.50;;
19776;SDS011;10047;42.490;26.012;2023-07-29T06:23:48;3.92;;;2.17;;
19776;SDS011;10047;42.490;26.012;2023-07-29T06:26:14;6.13;;;2.83;;
19776;SDS011;10047;42.490;26.012;2023-07-29T06:28:39;5.15;;;3.30;;
19776;SDS011;10047;42.490;26.012;2023-07-29T06:31:05;4.32;;;2.80;;
19776;SDS011;10047;42.490;26.012;2023-07-29T06:33:30;3.63;;;2.38;;
19776;SDS011;10047;42.490;26.012;2023-07-29T06:35:55;3.75;;;2.58;;
19776;SDS011;10047;42.490;26.012;2023-07-29T06:38:21;4.32;;;2.63;;
19776;SDS011;10047;42.490;26.012;2023-07-29T06:40:50;3.58;;;2.42;;
19776;SDS011;10047;42.490;26.012;2023-07-29T06:43:16;5.35;;;2.88;;
19776;SDS011;10047;42.490;26.012;2023-07-29T06:45:42;5.03;;;2.92;;
19776;SDS011;10047;42.490;26.012;2023-07-29T06:48:07;3.92;;;2.70;;
19776;SDS011;10047;42.490;26.012;2023-07-29T06:50:33;3.08;;;2.70;;
19776;SDS011;10047;42.490;26.012;2023-07-29T06:52:59;3.85;;;2.60;;
19776;SDS011;10047;42.490;26.012;2023-07-29T06:55:24;4.65;;;2.72;;
19776;SDS011;10047;42.490;26.012;2023-07-29T06:57:49;5.50;;;2.40;;
19776;SDS011;10047;42.490;26.012;2023-07-29T07:00:15;6.20;;;3.10;;
19776;SDS011;10047;42.490;26.012;2023-07-29T07:02:40;8.10;;;4.35;;
19776;SDS011;10047;42.490;26.012;2023-07-29T07:05:06;6.10;;;3.38;;
19776;SDS011;10047;42.490;26.012;2023-07-29T07:07:32;4.25;;;2.80;;
19776;SDS011;10047;42.490;26.012;2023-07-29T07:09:57;8.00;;;2.70;;
19776;SDS011;10047;42.490;26.012;2023-07-29T07:12:23;6.65;;;2.95;;
19776;SDS011;10047;42.490;26.012;2023-07-29T07:14:48;6.00;;;2.50;;
19776;SDS011;10047;42.490;26.012;2023-07-29T07:17:14;3.65;;;2.33;;
19776;SDS011;10047;42.490;26.012;2023-07-29T07:19:39;3.95;;;2.25;;
19776;SDS011;10047;42.490;26.012;2023-07-29T07:22:05;4.88;;;2.58;;
19776;SDS011;10047;42.490;26.012;2023-07-29T07:24:30;3.92;;;2.70;;
19776;SDS011;10047;42.490;26.012;2023-07-29T07:26:56;8.00;;;2.45;;
19776;SDS011;10047;42.490;26.012;2023-07-29T07:29:21;8.27;;;2.50;;
19776;SDS011;10047;42.490;26.012;2023-07-29T07:31:50;4.07;;;2.53;;
19776;SDS011;10047;42.490;26.012;2023-07-29T07:34:20;5.05;;;2.40;;
19776;SDS011;10047;42.490;26.012;2023-07-29T07:36:46;8.30;;;2.78;;
19776;SDS011;10047;42.490;26.012;2023-07-29T07:39:12;4.35;;;2.53;;
19776;SDS011;10047;42.490;26.012;2023-07-29T07:41:37;4.57;;;2.42;;
19776;SDS011;10047;42.490;26.012;2023-07-29T07:44:03;4.57;;;2.42;;
19776;SDS011;10047;42.490;26.012;2023-07-29T07:46:29;2.85;;;2.20;;
19776;SDS011;10047;42.490;26.012;2023-07-29T07:48:54;5.05;;;2.72;;
19776;SDS011;10047;42.490;26.012;2023-07-29T07:51:20;3.80;;;2.33;;
19776;SDS011;10047;42.490;26.012;2023-07-29T07:53:45;5.13;;;2.65;;
19776;SDS011;10047;42.490;26.012;2023-07-29T07:56:11;4.13;;;2.42;;
19776;SDS011;10047;42.490;26.012;2023-07-29T07:58:36;5.05;;;2.17;;
19776;SDS011;10047;42.490;26.012;2023-07-29T08:01:02;3.28;;;2.20;;
19776;SDS011;10047;42.490;26.012;2023-07-29T08:03:32;3.72;;;2.17;;
19776;SDS011;10047;42.490;26.012;2023-07-29T08:05:58;5.18;;;2.45;;
19776;SDS011;10047;42.490;26.012;2023-07-29T08:08:25;3.90;;;2.38;;
19776;SDS011;10047;42.490;26.012;2023-07-29T08:10:52;5.80;;;2.13;;
19776;SDS011;10047;42.490;26.012;2023-07-29T08:13:19;6.25;;;2.45;;
19776;SDS011;10047;42.490;26.012;2023-07-29T08:15:47;3.08;;;2.20;;
19776;SDS011;10047;42.490;26.012;2023-07-29T08:18:14;3.10;;;2.50;;
19776;SDS011;10047;42.490;26.012;2023-07-29T08:20:40;4.07;;;2.67;;
19776;SDS011;10047;42.490;26.012;2023-07-29T08:23:05;5.65;;;2.20;;
19776;SDS011;10047;42.490;26.012;2023-07-29T08:25:31;2.85;;;2.30;;
19776;SDS011;10047;42.490;26.012;2023-07-29T08:27:56;4.13;;;2.25;;
19776;SDS011;10047;42.490;26.012;2023-07-29T08:30:22;2.53;;;2.17;;
19776;SDS011;10047;42.490;26.012;2023-07-29T08:32:47;4.13;;;2.50;;
19776;SDS011;10047;42.490;26.012;2023-07-29T08:35:13;3.42;;;2.25;;
19776;SDS011;10047;42.490;26.012;2023-07-29T08:37:38;6.60;;;2.58;;
19776;SDS011;10047;42.490;26.012;2023-07-29T08:40:04;3.45;;;2.60;;
19776;SDS011;10047;42.490;26.012;2023-07-29T08:42:31;8.23;;;3.80;;
19776;SDS011;10047;42.490;26.012;2023-07-29T08:44:59;3.00;;;2.60;;
19776;SDS011;10047;42.490;26.012;2023-07-29T08:47:31;6.00;;;2.80;;
19776;SDS011;10047;42.490;26.012;2023-07-29T08:49:56;2.40;;;2.20;;
19776;SDS011;10047;42.490;26.012;2023-07-29T08:52:24;3.42;;;2.30;;
19776;SDS011;10047;42.490;26.012;2023-07-29T08:54:51;3.83;;;2.47;;
19776;SDS011;10047;42.490;26.012;2023-07-29T08:57:17;2.50;;;2.30;;
19776;SDS011;10047;42.490;26.012;2023-07-29T08:59:45;3.25;;;2.20;;
19776;SDS011;10047;42.490;26.012;2023-07-29T09:02:11;5.50;;;2.60;;
19776;SDS011;10047;42.490;26.012;2023-07-29T09:04:36;3.63;;;2.20;;
19776;SDS011;10047;42.490;26.012;2023-07-29T09:07:02;2.97;;;2.40;;
19776;SDS011;10047;42.490;26.012;2023-07-29T09:09:28;3.78;;;2.20;;
19776;SDS011;10047;42.490;26.012;2023-07-29T09:11:53;2.33;;;2.08;;
19776;SDS011;10047;42.490;26.012;2023-07-29T09:14:19;3.28;;;2.50;;
19776;SDS011;10047;42.490;26.012;2023-07-29T09:16:45;3.80;;;2.25;;
19776;SDS011;10047;42.490;26.012;2023-07-29T09:19:11;3.75;;;2.58;;
19776;SDS011;10047;42.490;26.012;2023-07-29T09:21:38;3.42;;;2.78;;
19776;SDS011;10047;42.490;26.012;2023-07-29T09:24:05;3.85;;;2.92;;
19776;SDS011;10047;42.490;26.012;2023-07-29T09:26:32;3.05;;;2.30;;
19776;SDS011;10047;42.490;26.012;2023-07-29T09:28:58;7.00;;;3.35;;
19776;SDS011;10047;42.490;26.012;2023-07-29T09:31:25;5.43;;;2.65;;
19776;SDS011;10047;42.490;26.012;2023-07-29T09:33:55;2.53;;;1.92;;
19776;SDS011;10047;42.490;26.012;2023-07-29T09:36:23;3.65;;;2.40;;
19776;SDS011;10047;42.490;26.012;2023-07-29T09:38:51;3.42;;;2.33;;
19776;SDS011;10047;42.490;26.012;2023-07-29T09:41:17;3.53;;;2.13;;
19776;SDS011;10047;42.490;26.012;2023-07-29T09:43:43;2.88;;;2.25;;
19776;SDS011;10047;42.490;26.012;2023-07-29T09:46:08;4.65;;;2.50;;
19776;SDS011;10047;42.490;26.012;2023-07-29T09:48:34;2.20;;;2.00;;
19776;SDS011;10047;42.490;26.012;2023-07-29T09:51:09;2.78;;;2.10;;
19776;SDS011;10047;42.490;26.012;2023-07-29T09:53:42;2.55;;;1.98;;
19776;SDS011;10047;42.490;26.012;2023-07-29T09:56:08;2.42;;;1.80;;
19776;SDS011;10047;42.490;26.012;2023-07-29T09:58:35;2.83;;;1.90;;
19776;SDS011;10047;42.490;26.012;2023-07-29T10:01:03;2.60;;;2.08;;
19776;SDS011;10047;42.490;26.012;2023-07-29T10:03:28;2.55;;;2.15;;
19776;SDS011;10047;42.490;26.012;2023-07-29T10:05:56;2.95;;;2.13;;
19776;SDS011;10047;42.490;26.012;2023-07-29T10:08:26;2.57;;;1.90;;
19776;SDS011;10047;42.490;26.012;2023-07-29T10:10:53;3.67;;;2.10;;
19776;SDS011;10047;42.490;26.012;2023-07-29T10:13:20;3.10;;;2.00;;
19776;SDS011;10047;42.490;26.012;2023-07-29T10:15:45;3.30;;;2.15;;
19776;SDS011;10047;42.490;26.012;2023-07-29T10:18:11;2.97;;;2.00;;
19776;SDS011;10047;42.490;26.012;2023-07-29T10:20:37;3.05;;;1.63;;
19776;SDS011;10047;42.490;26.012;2023-07-29T10:23:05;3.15;;;1.90;;
19776;SDS011;10047;42.490;26.012;2023-07-29T10:25:37;3.92;;;2.08;;
19776;SDS011;10047;42.490;26.012;2023-07-29T10:28:05;2.20;;;2.00;;
19776;SDS011;10047;42.490;26.012;2023-07-29T10:30:32;2.78;;;1.98;;
19776;SDS011;10047;42.490;26.012;2023-07-29T10:32:59;4.07;;;2.10;;
19776;SDS011;10047;42.490;26.012;2023-07-29T10:35:28;6.00;;;2.60;;
19776;SDS011;10047;42.490;26.012;2023-07-29T10:37:53;4.50;;;2.30;;
19776;SDS011;10047;42.490;26.012;2023-07-29T10:40:20;2.97;;;2.10;;
19776;SDS011;10047;42.490;26.012;2023-07-29T10:43:03;2.53;;;2.20;;
19776;SDS011;10047;42.490;26.012;2023-07-29T10:45:39;3.45;;;2.25;;
19776;SDS011;10047;42.490;26.012;2023-07-29T10:48:12;6.03;;;4.10;;
19776;SDS011;10047;42.490;26.012;2023-07-29T10:54:12;3.17;;;2.28;;
19776;SDS011;10047;42.490;26.012;2023-07-29T10:56:43;3.25;;;2.20;;
19776;SDS011;10047;42.490;26.012;2023-07-29T11:01:41;2.53;;;2.00;;
19776;SDS011;10047;42.490;26.012;2023-07-29T11:15:23;4.25;;;2.17;;
19776;SDS011;10047;42.490;26.012;2023-07-29T11:17:52;4.65;;;2.80;;
19776;SDS011;10047;42.490;26.012;2023-07-29T11:20:17;5.03;;;2.70;;
19776;SDS011;10047;42.490;26.012;2023-07-29T11:22:44;2.95;;;1.90;;
19776;SDS011;10047;42.490;26.012;2023-07-29T11:25:11;2.40;;;2.20;;
19776;SDS011;10047;42.490;26.012;2023-07-29T11:27:38;3.78;;;2.40;;
19776;SDS011;10047;42.490;26.012;2023-07-29T11:30:05;4.63;;;2.50;;
19776;SDS011;10047;42.490;26.012;2023-07-29T11:32:35;2.60;;;2.17;;
19776;SDS011;10047;42.490;26.012;2023-07-29T11:35:02;3.97;;;2.90;;
19776;SDS011;10047;42.490;26.012;2023-07-29T11:37:29;2.72;;;2.33;;
19776;SDS011;10047;42.490;26.012;2023-07-29T11:39:54;2.95;;;2.35;;
19776;SDS011;10047;42.490;26.012;2023-07-29T11:42:20;2.63;;;2.40;;
19776;SDS011;10047;42.490;26.012;2023-07-29T11:44:45;3.13;;;2.45;;
19776;SDS011;10047;42.490;26.012;2023-07-29T11:47:11;3.65;;;2.47;;
19776;SDS011;10047;42.490;26.012;2023-07-29T11:49:40;2.78;;;2.15;;
19776;SDS011;10047;42.490;26.012;2023-07-29T11:52:07;3.22;;;2.05;;
19776;SDS011;10047;42.490;26.012;2023-07-29T11:54:34;3.60;;;2.10;;
19776;SDS011;10047;42.490;26.012;2023-07-29T11:57:00;2.90;;;2.40;;
19776;SDS011;10047;42.490;26.012;2023-07-29T11:59:27;3.17;;;2.22;;
19776;SDS011;10047;42.490;26.012;2023-07-29T12:01:53;3.72;;;2.17;;
19776;SDS011;10047;42.490;26.012;2023-07-29T12:04:18;4.25;;;2.00;;
19776;SDS011;10047;42.490;26.012;2023-07-29T12:06:44;2.65;;;2.17;;
19776;SDS011;10047;42.490;26.012;2023-07-29T12:09:10;3.55;;;2.13;;
19776;SDS011;10047;42.490;26.012;2023-07-29T12:11:35;2.10;;;1.90;;
19776;SDS011;10047;42.490;26.012;2023-07-29T12:14:01;2.90;;;2.13;;
19776;SDS011;10047;42.490;26.012;2023-07-29T12:16:26;3.08;;;2.28;;
19776;SDS011;10047;42.490;26.012;2023-07-29T12:18:52;2.60;;;2.33;;
19776;SDS011;10047;42.490;26.012;2023-07-29T12:21:20;3.33;;;2.08;;
19776;SDS011;10047;42.490;26.012;2023-07-29T12:23:46;2.42;;;2.22;;
19776;SDS011;10047;42.490;26.012;2023-07-29T12:26:11;5.55;;;2.63;;
19776;SDS011;10047;42.490;26.012;2023-07-29T12:28:37;3.13;;;2.17;;
19776;SDS011;10047;42.490;26.012;2023-07-29T12:31:06;2.47;;;2.28;;
19776;SDS011;10047;42.490;26.012;2023-07-29T12:33:35;2.37;;;2.17;;
19776;SDS011;10047;42.490;26.012;2023-07-29T12:36:04;3.58;;;2.10;;
19776;SDS011;10047;42.490;26.012;2023-07-29T12:38:30;2.55;;;2.30;;
19776;SDS011;10047;42.490;26.012;2023-07-29T12:40:56;2.53;;;2.33;;
19776;SDS011;10047;42.490;26.012;2023-07-29T12:43:21;3.08;;;2.05;;
19776;SDS011;10047;42.490;26.012;2023-07-29T12:45:50;2.63;;;2.42;;
19776;SDS011;10047;42.490;26.012;2023-07-29T12:48:15;3.47;;;2.63;;
19776;SDS011;10047;42.490;26.012;2023-07-29T12:50:41;2.55;;;2.30;;
19776;SDS011;10047;42.490;26.012;2023-07-29T12:53:07;3.28;;;2.60;;
19776;SDS011;10047;42.490;26.012;2023-07-29T12:55:35;3.15;;;2.35;;
19776;SDS011;10047;42.490;26.012;2023-07-29T12:58:00;3.90;;;2.33;;
19776;SDS011;10047;42.490;26.012;2023-07-29T13:00:25;4.13;;;2.35;;
19776;SDS011;10047;42.490;26.012;2023-07-29T13:02:51;3.45;;;2.33;;
19776;SDS011;10047;42.490;26.012;2023-07-29T13:05:16;2.70;;;2.35;;
19776;SDS011;10047;42.490;26.012;2023-07-29T13:07:42;2.80;;;2.38;;
19776;SDS011;10047;42.490;26.012;2023-07-29T13:10:09;3.45;;;2.00;;
19776;SDS011;10047;42.490;26.012;2023-07-29T13:12:34;2.13;;;1.92;;
19776;SDS011;10047;42.490;26.012;2023-07-29T13:15:00;2.10;;;1.88;;
19776;SDS011;10047;42.490;26.012;2023-07-29T13:17:26;2.80;;;2.50;;
19776;SDS011;10047;42.490;26.012;2023-07-29T13:19:51;2.95;;;2.17;;
19776;SDS011;10047;42.490;26.012;2023-07-29T13:22:17;2.70;;;2.40;;
19776;SDS011;10047;42.490;26.012;2023-07-29T13:24:42;2.83;;;2.38;;
19776;SDS011;10047;42.490;26.012;2023-07-29T13:27:08;3.00;;;2.60;;
19776;SDS011;10047;42.490;26.012;2023-07-29T13:29:33;2.42;;;2.20;;
19776;SDS011;10047;42.490;26.012;2023-07-29T13:31:58;5.45;;;2.22;;
19776;SDS011;10047;42.490;26.012;2023-07-29T13:34:24;3.33;;;2.22;;
19776;SDS011;10047;42.490;26.012;2023-07-29T13:36:49;2.70;;;2.20;;
19776;SDS011;10047;42.490;26.012;2023-07-29T13:39:15;3.47;;;2.25;;
19776;SDS011;10047;42.490;26.012;2023-07-29T13:41:40;3.42;;;2.28;;
19776;SDS011;10047;42.490;26.012;2023-07-29T13:44:06;5.10;;;2.50;;
19776;SDS011;10047;42.490;26.012;2023-07-29T13:46:31;4.35;;;2.20;;
19776;SDS011;10047;42.490;26.012;2023-07-29T13:48:57;4.38;;;2.30;;
19776;SDS011;10047;42.490;26.012;2023-07-29T13:51:22;3.33;;;2.00;;
19776;SDS011;10047;42.490;26.012;2023-07-29T13:53:47;9.95;;;2.50;;
19776;SDS011;10047;42.490;26.012;2023-07-29T13:56:13;5.88;;;2.38;;
19776;SDS011;10047;42.490;26.012;2023-07-29T13:58:39;3.88;;;2.28;;
19776;SDS011;10047;42.490;26.012;2023-07-29T14:01:05;2.30;;;2.10;;
19776;SDS011;10047;42.490;26.012;2023-07-29T14:03:30;13.65;;;2.67;;
19776;SDS011;10047;42.490;26.012;2023-07-29T14:05:56;3.50;;;2.30;;
19776;SDS011;10047;42.490;26.012;2023-07-29T14:08:21;3.97;;;2.17;;
19776;SDS011;10047;42.490;26.012;2023-07-29T14:10:48;2.75;;;2.33;;
19776;SDS011;10047;42.490;26.012;2023-07-29T14:13:14;4.97;;;2.67;;
19776;SDS011;10047;42.490;26.012;2023-07-29T14:15:39;4.10;;;2.25;;
19776;SDS011;10047;42.490;26.012;2023-07-29T14:18:05;2.88;;;2.15;;
19776;SDS011;10047;42.490;26.012;2023-07-29T14:20:31;3.03;;;2.25;;
19776;SDS011;10047;42.490;26.012;2023-07-29T14:22:57;3.50;;;2.30;;
19776;SDS011;10047;42.490;26.012;2023-07-29T14:25:23;5.70;;;2.60;;
19776;SDS011;10047;42.490;26.012;2023-07-29T14:27:48;5.25;;;2.38;;
19776;SDS011;10047;42.490;26.012;2023-07-29T14:30:14;3.03;;;2.10;;
19776;SDS011;10047;42.490;26.012;2023-07-29T14:32:39;3.45;;;2.05;;
19776;SDS011;10047;42.490;26.012;2023-07-29T14:35:05;2.25;;;2.05;;
19776;SDS011;10047;42.490;26.012;2023-07-29T14:37:32;20.52;;;3.30;;
19776;SDS011;10047;42.490;26.012;2023-07-29T14:39:58;4.35;;;2.00;;
19776;SDS011;10047;42.490;26.012;2023-07-29T14:42:23;2.42;;;2.15;;
19776;SDS011;10047;42.490;26.012;2023-07-29T14:44:49;5.05;;;2.20;;
19776;SDS011;10047;42.490;26.012;2023-07-29T14:47:14;6.45;;;2.20;;
19776;SDS011;10047;42.490;26.012;2023-07-29T14:49:40;4.05;;;1.88;;